sensor_id;sensor_type;location;lat;lon;timestamp;pressure;altitude;pressure_sealevel;temperature;humidity
21960;BME280;11144;43.030;25.108;2023-04-20T00:01:16;98822.72;;;12.29;100.00
21960;BME280;11144;43.030;25.108;2023-04-20T00:02:49;98820.88;;;12.31;100.00
21960;BME280;11144;43.030;25.108;2023-04-20T00:04:22;98817.28;;;12.32;100.00
21960;BME280;11144;43.030;25.108;2023-04-20T00:05:56;98819.84;;;12.34;100.00
21960;BME280;11144;43.030;25.108;2023-04-20T00:07:32;98819.63;;;12.38;100.00
21960;BME280;11144;43.030;25.108;2023-04-20T00:09:05;98814.56;;;12.34;100.00
21960;BME280;11144;43.030;25.108;2023-04-20T00:10:39;98816.19;;;12.36;100.00
21960;BME280;11144;43.030;25.108;2023-04-20T00:12:13;98808.38;;;12.33;100.00
21960;BME280;11144;43.030;25.108;2023-04-20T00:13:47;98806.97;;;12.26;100.00
21960;BME280;11144;43.030;25.108;2023-04-20T00:15:21;98795.16;;;12.16;100.00
21960;BME280;11144;43.030;25.108;2023-04-20T00:16:54;98794.81;;;12.05;100.00
21960;BME280;11144;43.030;25.108;2023-04-20T00:18:27;98798.38;;;12.04;100.00
21960;BME280;11144;43.030;25.108;2023-04-20T00:20:00;98802.94;;;12.02;100.00
21960;BME280;11144;43.030;25.108;2023-04-20T00:21:34;98799.47;;;12.00;100.00
21960;BME280;11144;43.030;25.108;2023-04-20T00:23:08;98806.34;;;12.04;100.00
21960;BME280;11144;43.030;25.108;2023-04-20T00:24:40;98804.34;;;12.09;100.00
21960;BME280;11144;43.030;25.108;2023-04-20T00:26:13;98804.41;;;12.08;100.00
21960;BME280;11144;43.030;25.108;2023-04-20T00:27:52;98799.19;;;12.06;100.00
21960;BME280;11144;43.030;25.108;2023-04-20T00:29:24;98801.03;;;12.04;100.00
21960;BME280;11144;43.030;25.108;2023-04-20T00:30:59;98795.06;;;12.01;100.00
21960;BME280;11144;43.030;25.108;2023-04-20T00:32:33;98800.44;;;11.99;100.00
21960;BME280;11144;43.030;25.108;2023-04-20T00:34:06;98791.06;;;11.92;100.00
21960;BME280;11144;43.030;25.108;2023-04-20T00:35:39;98792.78;;;11.93;100.00
21960;BME280;11144;43.030;25.108;2023-04-20T00:37:13;98791.06;;;11.92;100.00
21960;BME280;11144;43.030;25.108;2023-04-20T00:38:46;98796.34;;;11.92;100.00
21960;BME280;11144;43.030;25.108;2023-04-20T00:40:18;98792.78;;;11.93;100.00
21960;BME280;11144;43.030;25.108;2023-04-20T00:41:52;98796.50;;;11.89;100.00
21960;BME280;11144;43.030;25.108;2023-04-20T00:43:25;98796.69;;;11.86;100.00
21960;BME280;11144;43.030;25.108;2023-04-20T00:44:57;98789.03;;;11.80;100.00
21960;BME280;11144;43.030;25.108;2023-04-20T00:46:32;98796.97;;;11.80;100.00
21960;BME280;11144;43.030;25.108;2023-04-20T00:48:06;98798.69;;;11.81;100.00
21960;BME280;11144;43.030;25.108;2023-04-20T00:49:39;98799.47;;;11.83;100.00
21960;BME280;11144;43.030;25.108;2023-04-20T00:51:14;98798.47;;;11.86;100.00
21960;BME280;11144;43.030;25.108;2023-04-20T00:52:46;98796.97;;;11.80;100.00
21960;BME280;11144;43.030;25.108;2023-04-20T00:54:21;98801.47;;;11.78;100.00
21960;BME280;11144;43.030;25.108;2023-04-20T00:55:55;98793.53;;;11.78;100.00
21960;BME280;11144;43.030;25.108;2023-04-20T00:57:28;98793.53;;;11.78;100.00
21960;BME280;11144;43.030;25.108;2023-04-20T00:59:05;98788.41;;;11.75;100.00
21960;BME280;11144;43.030;25.108;2023-04-20T01:00:39;98791.81;;;11.77;100.00
21960;BME280;11144;43.030;25.108;2023-04-20T01:02:15;98790.25;;;11.73;100.00
21960;BME280;11144;43.030;25.108;2023-04-20T01:03:49;98797.25;;;11.74;100.00
21960;BME280;11144;43.030;25.108;2023-04-20T01:05:22;98804.38;;;11.74;100.00
21960;BME280;11144;43.030;25.108;2023-04-20T01:06:54;98802.56;;;11.74;100.00
21960;BME280;11144;43.030;25.108;2023-04-20T01:08:28;98797.50;;;11.70;100.00
21960;BME280;11144;43.030;25.108;2023-04-20T01:10:01;98794.13;;;11.66;100.00
21960;BME280;11144;43.030;25.108;2023-04-20T01:11:34;98791.84;;;11.59;100.00
21960;BME280;11144;43.030;25.108;2023-04-20T01:13:08;98797.28;;;11.56;100.00
21960;BME280;11144;43.030;25.108;2023-04-20T01:14:40;98800.16;;;11.51;100.00
21960;BME280;11144;43.030;25.108;2023-04-20T01:16:15;98800.00;;;11.54;100.00
21960;BME280;11144;43.030;25.108;2023-04-20T01:17:50;98793.69;;;11.57;100.00
21960;BME280;11144;43.030;25.108;2023-04-20T01:19:24;98789.28;;;11.57;100.00
21960;BME280;11144;43.030;25.108;2023-04-20T01:20:58;98788.41;;;11.57;100.00
21960;BME280;11144;43.030;25.108;2023-04-20T01:22:33;98789.41;;;11.54;100.00
21960;BME280;11144;43.030;25.108;2023-04-20T01:24:05;98785.81;;;11.55;100.00
21960;BME280;11144;43.030;25.108;2023-04-20T01:25:39;98788.63;;;11.52;100.00
21960;BME280;11144;43.030;25.108;2023-04-20T01:27:13;98792.19;;;11.51;100.00
21960;BME280;11144;43.030;25.108;2023-04-20T01:28:47;98795.00;;;11.48;100.00
21960;BME280;11144;43.030;25.108;2023-04-20T01:30:19;98788.13;;;11.44;100.00
21960;BME280;11144;43.030;25.108;2023-04-20T01:31:53;98793.44;;;11.44;100.00
21960;BME280;11144;43.030;25.108;2023-04-20T01:33:26;98783.16;;;11.38;100.00
21960;BME280;11144;43.030;25.108;2023-04-20T01:34:59;98786.00;;;11.34;100.00
21960;BME280;11144;43.030;25.108;2023-04-20T01:36:32;98784.03;;;11.20;100.00
21960;BME280;11144;43.030;25.108;2023-04-20T01:38:07;98782.44;;;11.16;100.00
21960;BME280;11144;43.030;25.108;2023-04-20T01:39:40;98796.72;;;11.12;100.00
21960;BME280;11144;43.030;25.108;2023-04-20T01:41:12;98788.00;;;11.10;100.00
21960;BME280;11144;43.030;25.108;2023-04-20T01:42:46;98792.69;;;11.05;100.00
21960;BME280;11144;43.030;25.108;2023-04-20T01:44:18;98794.66;;;11.00;100.00
21960;BME280;11144;43.030;25.108;2023-04-20T01:45:52;98791.38;;;10.95;100.00
21960;BME280;11144;43.030;25.108;2023-04-20T01:47:24;98789.50;;;10.97;100.00
21960;BME280;11144;43.030;25.108;2023-04-20T01:48:57;98792.00;;;11.00;100.00
21960;BME280;11144;43.030;25.108;2023-04-20T01:50:30;98785.94;;;10.98;100.00
21960;BME280;11144;43.030;25.108;2023-04-20T01:52:04;98783.31;;;10.98;100.00
21960;BME280;11144;43.030;25.108;2023-04-20T01:53:39;98789.44;;;10.99;100.00
21960;BME280;11144;43.030;25.108;2023-04-20T01:55:12;98790.16;;;11.02;100.00
21960;BME280;11144;43.030;25.108;2023-04-20T01:56:45;98784.75;;;11.05;100.00
21960;BME280;11144;43.030;25.108;2023-04-20T01:58:19;98781.16;;;11.06;100.00
21960;BME280;11144;43.030;25.108;2023-04-20T01:59:52;98789.84;;;11.08;100.00
21960;BME280;11144;43.030;25.108;2023-04-20T02:01:26;98779.44;;;11.05;100.00
21960;BME280;11144;43.030;25.108;2023-04-20T02:02:59;98777.72;;;11.04;100.00
21960;BME280;11144;43.030;25.108;2023-04-20T02:04:33;98776.94;;;11.02;100.00
21960;BME280;11144;43.030;25.108;2023-04-20T02:06:07;98788.28;;;11.04;100.00
21960;BME280;11144;43.030;25.108;2023-04-20T02:07:40;98777.84;;;11.01;100.00
21960;BME280;11144;43.030;25.108;2023-04-20T02:09:14;98780.72;;;10.97;100.00
21960;BME280;11144;43.030;25.108;2023-04-20T02:10:47;98785.28;;;10.93;100.00
21960;BME280;11144;43.030;25.108;2023-04-20T02:12:21;98784.38;;;10.94;100.00
21960;BME280;11144;43.030;25.108;2023-04-20T02:13:53;98777.41;;;10.92;100.00
21960;BME280;11144;43.030;25.108;2023-04-20T02:15:26;98778.72;;;10.83;100.00
21960;BME280;11144;43.030;25.108;2023-04-20T02:17:00;98778.72;;;10.83;100.00
21960;BME280;11144;43.030;25.108;2023-04-20T02:18:34;98778.84;;;10.80;100.00
21960;BME280;11144;43.030;25.108;2023-04-20T02:20:08;98782.44;;;10.79;100.00
21960;BME280;11144;43.030;25.108;2023-04-20T02:21:43;98776.84;;;10.85;100.00
21960;BME280;11144;43.030;25.108;2023-04-20T02:23:17;98778.56;;;10.86;100.00
21960;BME280;11144;43.030;25.108;2023-04-20T02:24:51;98776.97;;;10.82;100.00
21960;BME280;11144;43.030;25.108;2023-04-20T02:26:24;98777.13;;;10.79;100.00
21960;BME280;11144;43.030;25.108;2023-04-20T02:27:57;98780.13;;;10.72;100.00
21960;BME280;11144;43.030;25.108;2023-04-20T02:29:31;98784.03;;;10.63;100.00
21960;BME280;11144;43.030;25.108;2023-04-20T02:31:03;98786.53;;;10.66;100.00
21960;BME280;11144;43.030;25.108;2023-04-20T02:32:37;98774.13;;;10.68;100.00
21960;BME280;11144;43.030;25.108;2023-04-20T02:34:09;98786.22;;;10.74;100.00
21960;BME280;11144;43.030;25.108;2023-04-20T02:35:42;98785.22;;;10.76;100.00
21960;BME280;11144;43.030;25.108;2023-04-20T02:37:16;98785.22;;;10.76;100.00
21960;BME280;11144;43.030;25.108;2023-04-20T02:38:48;98776.47;;;10.74;100.00
21960;BME280;11144;43.030;25.108;2023-04-20T02:40:23;98782.56;;;10.76;100.00
21960;BME280;11144;43.030;25.108;2023-04-20T02:41:56;98783.41;;;10.77;100.00
21960;BME280;11144;43.030;25.108;2023-04-20T02:43:29;98777.53;;;10.70;100.00
21960;BME280;11144;43.030;25.108;2023-04-20T02:45:06;98789.69;;;10.74;100.00
21960;BME280;11144;43.030;25.108;2023-04-20T02:46:39;98772.38;;;10.67;100.00
21960;BME280;11144;43.030;25.108;2023-04-20T02:48:12;98779.41;;;10.68;100.00
21960;BME280;11144;43.030;25.108;2023-04-20T02:49:46;98773.13;;;10.71;100.00
21960;BME280;11144;43.030;25.108;2023-04-20T02:51:20;98781.00;;;10.72;100.00
21960;BME280;11144;43.030;25.108;2023-04-20T02:52:54;98782.75;;;10.72;100.00
21960;BME280;11144;43.030;25.108;2023-04-20T02:54:28;98772.13;;;10.73;100.00
21960;BME280;11144;43.030;25.108;2023-04-20T02:56:03;98781.63;;;10.77;100.00
21960;BME280;11144;43.030;25.108;2023-04-20T02:57:44;98776.34;;;10.77;100.00
21960;BME280;11144;43.030;25.108;2023-04-20T02:59:18;98780.63;;;10.80;100.00
21960;BME280;11144;43.030;25.108;2023-04-20T03:01:01;98781.56;;;10.79;100.00
21960;BME280;11144;43.030;25.108;2023-04-20T03:02:35;98773.81;;;10.74;100.00
21960;BME280;11144;43.030;25.108;2023-04-20T03:04:09;98766.97;;;10.70;100.00
21960;BME280;11144;43.030;25.108;2023-04-20T03:05:48;98775.03;;;10.67;100.00
21960;BME280;11144;43.030;25.108;2023-04-20T03:07:21;98770.94;;;10.60;100.00
21960;BME280;11144;43.030;25.108;2023-04-20T03:08:56;98779.94;;;10.56;100.00
21960;BME280;11144;43.030;25.108;2023-04-20T03:10:51;98768.66;;;10.53;100.00
21960;BME280;11144;43.030;25.108;2023-04-20T03:12:26;98775.06;;;10.47;100.00
21960;BME280;11144;43.030;25.108;2023-04-20T03:14:20;98782.13;;;10.47;100.00
21960;BME280;11144;43.030;25.108;2023-04-20T03:15:54;98775.19;;;10.44;100.00
21960;BME280;11144;43.030;25.108;2023-04-20T03:17:35;98779.56;;;10.45;100.00
21960;BME280;11144;43.030;25.108;2023-04-20T03:19:08;98787.47;;;10.45;100.00
21960;BME280;11144;43.030;25.108;2023-04-20T03:20:42;98783.06;;;10.46;100.00
21960;BME280;11144;43.030;25.108;2023-04-20T03:22:15;98783.06;;;10.46;100.00
21960;BME280;11144;43.030;25.108;2023-04-20T03:23:52;98787.63;;;10.42;100.00
21960;BME280;11144;43.030;25.108;2023-04-20T03:25:26;98786.91;;;10.38;100.00
21960;BME280;11144;43.030;25.108;2023-04-20T03:27:04;98776.59;;;10.32;100.00
21960;BME280;11144;43.030;25.108;2023-04-20T03:28:48;98783.63;;;10.33;100.00
21960;BME280;11144;43.030;25.108;2023-04-20T03:30:25;98784.75;;;10.28;100.00
21960;BME280;11144;43.030;25.108;2023-04-20T03:32:09;98789.88;;;10.31;100.00
21960;BME280;11144;43.030;25.108;2023-04-20T03:33:42;98791.72;;;10.29;100.00
21960;BME280;11144;43.030;25.108;2023-04-20T03:35:14;98791.84;;;10.26;100.00
21960;BME280;11144;43.030;25.108;2023-04-20T03:36:48;98791.09;;;10.24;100.00
21960;BME280;11144;43.030;25.108;2023-04-20T03:38:22;98792.16;;;10.20;100.00
21960;BME280;11144;43.030;25.108;2023-04-20T03:39:55;98784.59;;;10.11;100.00
21960;BME280;11144;43.030;25.108;2023-04-20T03:41:29;98788.03;;;10.13;100.00
21960;BME280;11144;43.030;25.108;2023-04-20T03:43:04;98787.09;;;10.14;100.00
21960;BME280;11144;43.030;25.108;2023-04-20T03:44:39;98787.09;;;10.14;100.00
21960;BME280;11144;43.030;25.108;2023-04-20T03:46:13;98784.59;;;10.11;100.00
21960;BME280;11144;43.030;25.108;2023-04-20T03:47:48;98786.59;;;10.06;100.00
21960;BME280;11144;43.030;25.108;2023-04-20T03:49:22;98786.03;;;9.98;100.00
21960;BME280;11144;43.030;25.108;2023-04-20T03:50:56;98786.25;;;9.92;100.00
21960;BME280;11144;43.030;25.108;2023-04-20T03:52:30;98782.97;;;9.87;100.00
21960;BME280;11144;43.030;25.108;2023-04-20T03:54:05;98796.28;;;9.84;100.00
21960;BME280;11144;43.030;25.108;2023-04-20T03:55:39;98789.44;;;9.80;100.00
21960;BME280;11144;43.030;25.108;2023-04-20T03:57:16;98794.28;;;9.69;100.00
21960;BME280;11144;43.030;25.108;2023-04-20T03:58:50;98793.81;;;9.59;100.00
21960;BME280;11144;43.030;25.108;2023-04-20T04:00:28;98794.75;;;9.57;100.00
21960;BME280;11144;43.030;25.108;2023-04-20T04:02:09;98793.06;;;9.56;100.00
21960;BME280;11144;43.030;25.108;2023-04-20T04:03:47;98796.63;;;9.55;100.00
21960;BME280;11144;43.030;25.108;2023-04-20T04:05:21;98795.03;;;9.51;100.00
21960;BME280;11144;43.030;25.108;2023-04-20T04:06:54;98791.69;;;9.46;100.00
21960;BME280;11144;43.030;25.108;2023-04-20T04:08:28;98803.88;;;9.50;100.00
21960;BME280;11144;43.030;25.108;2023-04-20T04:10:03;98800.19;;;9.54;100.00
21960;BME280;11144;43.030;25.108;2023-04-20T04:11:37;98802.63;;;9.58;100.00
21960;BME280;11144;43.030;25.108;2023-04-20T04:13:10;98805.09;;;9.63;100.00
21960;BME280;11144;43.030;25.108;2023-04-20T04:14:44;98800.47;;;9.68;100.00
21960;BME280;11144;43.030;25.108;2023-04-20T04:16:21;98801.22;;;9.71;100.00
21960;BME280;11144;43.030;25.108;2023-04-20T04:17:55;98799.19;;;9.78;100.00
21960;BME280;11144;43.030;25.108;2023-04-20T04:19:28;98797.47;;;9.77;100.00
21960;BME280;11144;43.030;25.108;2023-04-20T04:21:03;98800.75;;;9.82;100.00
21960;BME280;11144;43.030;25.108;2023-04-20T04:22:39;98807.75;;;9.83;100.00
21960;BME280;11144;43.030;25.108;2023-04-20T04:24:37;98798.66;;;9.90;100.00
21960;BME280;11144;43.030;25.108;2023-04-20T04:26:13;98811.09;;;9.88;100.00
21960;BME280;11144;43.030;25.108;2023-04-20T04:27:49;98812.78;;;9.89;100.00
21960;BME280;11144;43.030;25.108;2023-04-20T04:29:24;98814.66;;;9.87;100.00
21960;BME280;11144;43.030;25.108;2023-04-20T04:30:58;98813.91;;;9.83;100.00
21960;BME280;11144;43.030;25.108;2023-04-20T04:32:39;98812.44;;;9.76;100.00
21960;BME280;11144;43.030;25.108;2023-04-20T04:34:13;98809.63;;;9.81;100.00
21960;BME280;11144;43.030;25.108;2023-04-20T04:35:53;98817.41;;;9.84;100.00
21960;BME280;11144;43.030;25.108;2023-04-20T04:37:28;98815.31;;;9.92;100.00
21960;BME280;11144;43.030;25.108;2023-04-20T04:39:02;98814.84;;;10.02;100.00
21960;BME280;11144;43.030;25.108;2023-04-20T04:40:35;98821.38;;;10.15;100.00
21960;BME280;11144;43.030;25.108;2023-04-20T04:42:11;98816.44;;;10.28;100.00
21960;BME280;11144;43.030;25.108;2023-04-20T04:43:47;98814.78;;;10.46;100.00
21960;BME280;11144;43.030;25.108;2023-04-20T04:45:31;98819.19;;;10.65;100.00
21960;BME280;11144;43.030;25.108;2023-04-20T04:47:05;98824.00;;;10.76;100.00
21960;BME280;11144;43.030;25.108;2023-04-20T04:48:41;98819.97;;;10.87;100.00
21960;BME280;11144;43.030;25.108;2023-04-20T04:50:17;98817.38;;;11.04;100.00
21960;BME280;11144;43.030;25.108;2023-04-20T04:51:49;98815.78;;;11.20;100.00
21960;BME280;11144;43.030;25.108;2023-04-20T04:53:23;98810.59;;;11.36;100.00
21960;BME280;11144;43.030;25.108;2023-04-20T04:54:56;98814.00;;;11.56;100.00
21960;BME280;11144;43.030;25.108;2023-04-20T04:56:29;98813.94;;;11.76;100.00
21960;BME280;11144;43.030;25.108;2023-04-20T04:58:03;98815.38;;;12.00;100.00
21960;BME280;11144;43.030;25.108;2023-04-20T04:59:36;98818.53;;;12.25;100.00
21960;BME280;11144;43.030;25.108;2023-04-20T05:01:09;98808.22;;;12.53;100.00
21960;BME280;11144;43.030;25.108;2023-04-20T05:02:43;98817.97;;;12.85;100.00
21960;BME280;11144;43.030;25.108;2023-04-20T05:04:18;98822.25;;;13.05;100.00
21960;BME280;11144;43.030;25.108;2023-04-20T05:05:52;98827.56;;;13.37;100.00
21960;BME280;11144;43.030;25.108;2023-04-20T05:07:25;98828.84;;;13.77;100.00
21960;BME280;11144;43.030;25.108;2023-04-20T05:08:59;98828.88;;;14.07;100.00
21960;BME280;11144;43.030;25.108;2023-04-20T05:10:32;98834.50;;;14.32;100.00
21960;BME280;11144;43.030;25.108;2023-04-20T05:12:06;98822.97;;;14.47;100.00
21960;BME280;11144;43.030;25.108;2023-04-20T05:13:40;98828.47;;;14.44;100.00
21960;BME280;11144;43.030;25.108;2023-04-20T05:15:13;98833.06;;;14.56;100.00
21960;BME280;11144;43.030;25.108;2023-04-20T05:16:47;98836.91;;;14.80;100.00
21960;BME280;11144;43.030;25.108;2023-04-20T05:18:20;98832.00;;;15.16;100.00
21960;BME280;11144;43.030;25.108;2023-04-20T05:19:55;98826.25;;;15.64;100.00
21960;BME280;11144;43.030;25.108;2023-04-20T05:21:28;98828.66;;;15.95;100.00
21960;BME280;11144;43.030;25.108;2023-04-20T05:23:02;98827.59;;;16.24;100.00
21960;BME280;11144;43.030;25.108;2023-04-20T05:24:36;98823.94;;;16.51;100.00
21960;BME280;11144;43.030;25.108;2023-04-20T05:26:10;98821.22;;;16.78;100.00
21960;BME280;11144;43.030;25.108;2023-04-20T05:27:43;98822.16;;;17.02;100.00
21960;BME280;11144;43.030;25.108;2023-04-20T05:29:17;98828.56;;;17.37;100.00
21960;BME280;11144;43.030;25.108;2023-04-20T05:30:51;98815.47;;;17.70;100.00
21960;BME280;11144;43.030;25.108;2023-04-20T05:32:26;98813.06;;;17.91;100.00
21960;BME280;11144;43.030;25.108;2023-04-20T05:33:59;98807.34;;;17.72;100.00
21960;BME280;11144;43.030;25.108;2023-04-20T05:35:35;98810.19;;;17.45;100.00
21960;BME280;11144;43.030;25.108;2023-04-20T05:37:11;98805.94;;;17.05;100.00
21960;BME280;11144;43.030;25.108;2023-04-20T05:38:45;98806.38;;;16.74;100.00
21960;BME280;11144;43.030;25.108;2023-04-20T05:40:18;98802.31;;;16.81;100.00
21960;BME280;11144;43.030;25.108;2023-04-20T05:41:53;98805.81;;;16.94;100.00
21960;BME280;11144;43.030;25.108;2023-04-20T05:43:27;98803.56;;;17.13;100.00
21960;BME280;11144;43.030;25.108;2023-04-20T05:45:00;98811.56;;;17.51;100.00
21960;BME280;11144;43.030;25.108;2023-04-20T05:46:34;98816.06;;;17.86;100.00
21960;BME280;11144;43.030;25.108;2023-04-20T05:48:08;98818.47;;;18.25;100.00
21960;BME280;11144;43.030;25.108;2023-04-20T05:49:42;98810.84;;;18.66;100.00
21960;BME280;11144;43.030;25.108;2023-04-20T05:51:18;98816.28;;;18.99;100.00
21960;BME280;11144;43.030;25.108;2023-04-20T05:52:52;98817.81;;;19.36;100.00
21960;BME280;11144;43.030;25.108;2023-04-20T05:54:26;98815.34;;;19.55;100.00
21960;BME280;11144;43.030;25.108;2023-04-20T05:56:00;98814.09;;;19.92;100.00
21960;BME280;11144;43.030;25.108;2023-04-20T05:57:34;98808.69;;;20.15;100.00
21960;BME280;11144;43.030;25.108;2023-04-20T05:59:14;98823.28;;;20.33;100.00
21960;BME280;11144;43.030;25.108;2023-04-20T06:00:47;98817.97;;;20.42;100.00
21960;BME280;11144;43.030;25.108;2023-04-20T06:02:21;98815.13;;;20.23;100.00
21960;BME280;11144;43.030;25.108;2023-04-20T06:03:55;98814.78;;;20.06;100.00
21960;BME280;11144;43.030;25.108;2023-04-20T06:05:29;98807.00;;;20.14;100.00
21960;BME280;11144;43.030;25.108;2023-04-20T06:07:04;98808.44;;;20.18;100.00
21960;BME280;11144;43.030;25.108;2023-04-20T06:08:38;98807.31;;;20.52;100.00
21960;BME280;11144;43.030;25.108;2023-04-20T06:10:12;98807.72;;;20.68;100.00
21960;BME280;11144;43.030;25.108;2023-04-20T06:11:45;98807.19;;;20.74;100.00
21960;BME280;11144;43.030;25.108;2023-04-20T06:13:19;98800.03;;;20.95;100.00
21960;BME280;11144;43.030;25.108;2023-04-20T06:14:53;98803.25;;;20.78;100.00
21960;BME280;11144;43.030;25.108;2023-04-20T06:16:26;98804.28;;;20.97;100.00
21960;BME280;11144;43.030;25.108;2023-04-20T06:18:00;98797.31;;;21.15;100.00
21960;BME280;11144;43.030;25.108;2023-04-20T06:19:34;98794.22;;;21.20;100.00
21960;BME280;11144;43.030;25.108;2023-04-20T06:21:08;98797.88;;;21.19;100.00
21960;BME280;11144;43.030;25.108;2023-04-20T06:22:44;98799.81;;;20.87;100.00
21960;BME280;11144;43.030;25.108;2023-04-20T06:24:18;98791.81;;;20.24;100.00
21960;BME280;11144;43.030;25.108;2023-04-20T06:25:51;98796.66;;;19.76;100.00
21960;BME280;11144;43.030;25.108;2023-04-20T06:27:25;98800.03;;;19.46;100.00
21960;BME280;11144;43.030;25.108;2023-04-20T06:28:59;98786.06;;;19.19;100.00
21960;BME280;11144;43.030;25.108;2023-04-20T06:30:33;98786.06;;;18.97;100.00
21960;BME280;11144;43.030;25.108;2023-04-20T06:32:06;98796.97;;;18.61;100.00
21960;BME280;11144;43.030;25.108;2023-04-20T06:33:45;98792.41;;;18.27;100.00
21960;BME280;11144;43.030;25.108;2023-04-20T06:35:19;98789.94;;;17.90;100.00
21960;BME280;11144;43.030;25.108;2023-04-20T06:36:52;98790.66;;;17.68;100.00
21960;BME280;11144;43.030;25.108;2023-04-20T06:38:28;98786.75;;;17.85;100.00
21960;BME280;11144;43.030;25.108;2023-04-20T06:40:01;98795.97;;;18.04;100.00
21960;BME280;11144;43.030;25.108;2023-04-20T06:41:36;98792.03;;;18.44;100.00
21960;BME280;11144;43.030;25.108;2023-04-20T06:43:10;98796.59;;;18.66;100.00
21960;BME280;11144;43.030;25.108;2023-04-20T06:44:44;98797.81;;;18.62;100.00
21960;BME280;11144;43.030;25.108;2023-04-20T06:46:18;98792.63;;;18.82;100.00
21960;BME280;11144;43.030;25.108;2023-04-20T06:47:51;98789.00;;;18.83;100.00
21960;BME280;11144;43.030;25.108;2023-04-20T06:49:25;98802.38;;;19.05;100.00
21960;BME280;11144;43.030;25.108;2023-04-20T06:50:58;98791.00;;;19.25;100.00
21960;BME280;11144;43.030;25.108;2023-04-20T06:52:32;98801.69;;;19.03;100.00
21960;BME280;11144;43.030;25.108;2023-04-20T06:54:06;98799.34;;;19.21;100.00
21960;BME280;11144;43.030;25.108;2023-04-20T06:55:40;98802.94;;;19.32;100.00
21960;BME280;11144;43.030;25.108;2023-04-20T06:57:13;98797.69;;;19.42;100.00
21960;BME280;11144;43.030;25.108;2023-04-20T06:58:47;98811.22;;;19.62;100.00
21960;BME280;11144;43.030;25.108;2023-04-20T07:00:20;98796.63;;;19.98;100.00
21960;BME280;11144;43.030;25.108;2023-04-20T07:01:53;98798.34;;;20.31;100.00
21960;BME280;11144;43.030;25.108;2023-04-20T07:03:27;98804.81;;;20.60;100.00
21960;BME280;11144;43.030;25.108;2023-04-20T07:05:01;98803.19;;;20.89;100.00
21960;BME280;11144;43.030;25.108;2023-04-20T07:06:34;98803.69;;;20.94;100.00
21960;BME280;11144;43.030;25.108;2023-04-20T07:08:07;98799.78;;;20.46;100.00
21960;BME280;11144;43.030;25.108;2023-04-20T07:09:42;98799.41;;;20.08;100.00
21960;BME280;11144;43.030;25.108;2023-04-20T07:11:15;98801.81;;;19.13;100.00
21960;BME280;11144;43.030;25.108;2023-04-20T07:12:49;98807.94;;;18.69;100.00
21960;BME280;11144;43.030;25.108;2023-04-20T07:14:22;98812.59;;;18.78;100.00
21960;BME280;11144;43.030;25.108;2023-04-20T07:15:55;98809.66;;;18.70;100.00
21960;BME280;11144;43.030;25.108;2023-04-20T07:17:29;98808.69;;;18.82;100.00
21960;BME280;11144;43.030;25.108;2023-04-20T07:19:02;98809.47;;;19.06;100.00
21960;BME280;11144;43.030;25.108;2023-04-20T07:20:35;98812.41;;;19.03;100.00
21960;BME280;11144;43.030;25.108;2023-04-20T07:22:09;98807.00;;;18.81;100.00
21960;BME280;11144;43.030;25.108;2023-04-20T07:23:42;98810.88;;;18.77;100.00
21960;BME280;11144;43.030;25.108;2023-04-20T07:25:17;98810.94;;;18.99;100.00
21960;BME280;11144;43.030;25.108;2023-04-20T07:26:51;98812.44;;;19.25;100.00
21960;BME280;11144;43.030;25.108;2023-04-20T07:28:26;98806.47;;;19.33;100.00
21960;BME280;11144;43.030;25.108;2023-04-20T07:29:59;98807.22;;;19.35;100.00
21960;BME280;11144;43.030;25.108;2023-04-20T07:31:33;98803.59;;;19.89;100.00
21960;BME280;11144;43.030;25.108;2023-04-20T07:33:06;98807.56;;;20.17;100.00
21960;BME280;11144;43.030;25.108;2023-04-20T07:34:42;98800.44;;;19.84;100.00
21960;BME280;11144;43.030;25.108;2023-04-20T07:36:15;98791.72;;;19.38;100.00
21960;BME280;11144;43.030;25.108;2023-04-20T07:37:48;98806.09;;;19.26;100.00
21960;BME280;11144;43.030;25.108;2023-04-20T07:39:22;98800.50;;;19.29;100.00
21960;BME280;11144;43.030;25.108;2023-04-20T07:40:57;98799.50;;;19.52;100.00
21960;BME280;11144;43.030;25.108;2023-04-20T07:42:31;98802.91;;;19.76;100.00
21960;BME280;11144;43.030;25.108;2023-04-20T07:44:05;98804.78;;;19.96;100.00
21960;BME280;11144;43.030;25.108;2023-04-20T07:45:38;98796.94;;;20.16;100.00
21960;BME280;11144;43.030;25.108;2023-04-20T07:47:12;98802.09;;;20.08;100.00
21960;BME280;11144;43.030;25.108;2023-04-20T07:48:46;98792.56;;;20.15;100.00
21960;BME280;11144;43.030;25.108;2023-04-20T07:50:19;98796.75;;;20.39;100.00
21960;BME280;11144;43.030;25.108;2023-04-20T07:51:53;98802.94;;;20.51;100.00
21960;BME280;11144;43.030;25.108;2023-04-20T07:53:40;98796.50;;;20.63;100.00
21960;BME280;11144;43.030;25.108;2023-04-20T07:55:14;98792.44;;;20.89;100.00
21960;BME280;11144;43.030;25.108;2023-04-20T07:56:49;98796.31;;;20.55;100.00
21960;BME280;11144;43.030;25.108;2023-04-20T07:58:22;98778.13;;;20.68;100.00
21960;BME280;11144;43.030;25.108;2023-04-20T07:59:56;98788.63;;;21.12;100.00
21960;BME280;11144;43.030;25.108;2023-04-20T08:01:29;98790.19;;;21.35;100.00
21960;BME280;11144;43.030;25.108;2023-04-20T08:03:03;98794.38;;;21.58;100.00
21960;BME280;11144;43.030;25.108;2023-04-20T08:04:37;98793.84;;;21.64;100.00
21960;BME280;11144;43.030;25.108;2023-04-20T08:06:11;98788.97;;;21.48;100.00
21960;BME280;11144;43.030;25.108;2023-04-20T08:07:44;98791.78;;;21.47;100.00